ASA253 KPDX-KMFR
Flight info
| Callsign | ASA253 |
|---|---|
| Flight time | 0h 49m |
| Altitude | 27000 |
| Route | MINNE5 MINNE Q5 HISKU SAMIE |
| Aircraft | B738/M-SDE2E3FGHIRWXY/LB1 |
Departure
| Time | 2026-04-18 06:21 |
|---|---|
| Airport | Portland International Airport (KPDX) |
Arrival
| Time | 2026-04-18 07:10 |
|---|---|
| Airport | Rogue Valley International-Medford Airport (KMFR) |
| Time | Latitude | Longitude | Altitude | Speed | Heading |
|---|---|---|---|---|---|
| 2026-04-18 05:47 | 45.58907 | -122.59531 | 28 ft | 0 kts | 208° |
| 2026-04-18 06:06 | 45.58917 | -122.59523 | 35 ft | 4 kts | 208° |
| 2026-04-18 06:06 | 45.58940 | -122.59505 | 28 ft | 4 kts | 206° |
| 2026-04-18 06:06 | 45.58963 | -122.59500 | 28 ft | 4 kts | 159° |
| 2026-04-18 06:07 | 45.58987 | -122.59515 | 29 ft | 4 kts | 149° |
| 2026-04-18 06:07 | 45.58995 | -122.59521 | 29 ft | 0 kts | 144° |
| 2026-04-18 06:13 | 45.58993 | -122.59521 | 29 ft | 2 kts | 151° |
| 2026-04-18 06:13 | 45.58984 | -122.59549 | 28 ft | 5 kts | 296° |
| 2026-04-18 06:14 | 45.59004 | -122.59588 | 28 ft | 5 kts | 306° |
| 2026-04-18 06:14 | 45.59008 | -122.59598 | 28 ft | 0 kts | 301° |
| 2026-04-18 06:16 | 45.59027 | -122.59643 | 28 ft | 14 kts | 299° |
| 2026-04-18 06:16 | 45.59076 | -122.59768 | 28 ft | 11 kts | 299° |
| 2026-04-18 06:16 | 45.59097 | -122.59821 | 28 ft | 0 kts | 299° |
| 2026-04-18 06:17 | 45.59099 | -122.59826 | 28 ft | 6 kts | 299° |
| 2026-04-18 06:17 | 45.59136 | -122.59998 | 27 ft | 21 kts | 262° |
| 2026-04-18 06:17 | 45.59004 | -122.60165 | 27 ft | 27 kts | 208° |
| 2026-04-18 06:17 | 45.58956 | -122.60200 | 27 ft | 8 kts | 207° |
| 2026-04-18 06:18 | 45.58882 | -122.60184 | 27 ft | 16 kts | 128° |
| 2026-04-18 06:18 | 45.58815 | -122.60012 | 28 ft | 24 kts | 117° |
| 2026-04-18 06:18 | 45.58723 | -122.59781 | 28 ft | 30 kts | 120° |
| 2026-04-18 06:18 | 45.58610 | -122.59499 | 28 ft | 35 kts | 119° |
| 2026-04-18 06:19 | 45.58486 | -122.59181 | 27 ft | 32 kts | 119° |
| 2026-04-18 06:19 | 45.58379 | -122.58906 | 28 ft | 32 kts | 119° |
| 2026-04-18 06:19 | 45.58274 | -122.58640 | 28 ft | 29 kts | 119° |
| 2026-04-18 06:19 | 45.58199 | -122.58450 | 28 ft | 19 kts | 120° |
| 2026-04-18 06:20 | 45.58166 | -122.58373 | 27 ft | 0 kts | 133° |
| 2026-04-18 06:20 | 45.58086 | -122.58398 | 27 ft | 25 kts | 239° |
| 2026-04-18 06:20 | 45.58171 | -122.58697 | 30 ft | 65 kts | 300° |
| 2026-04-18 06:21 | 45.58539 | -122.59643 | 32 ft | 150 kts | 299° |
| 2026-04-18 06:21 | 45.59114 | -122.61103 | 623 ft | 180 kts | 300° |
| 2026-04-18 06:21 | 45.59740 | -122.62688 | 1750 ft | 185 kts | 301° |
| 2026-04-18 06:21 | 45.60382 | -122.64356 | 2735 ft | 198 kts | 298° |
| 2026-04-18 06:22 | 45.61019 | -122.66122 | 3533 ft | 204 kts | 301° |
| 2026-04-18 06:22 | 45.61820 | -122.67843 | 4231 ft | 219 kts | 304° |
| 2026-04-18 06:22 | 45.62717 | -122.69802 | 4505 ft | 244 kts | 300° |
| 2026-04-18 06:22 | 45.63616 | -122.71909 | 5147 ft | 251 kts | 298° |
| 2026-04-18 06:23 | 45.64507 | -122.74062 | 5914 ft | 251 kts | 297° |
| 2026-04-18 06:23 | 45.65373 | -122.76182 | 6710 ft | 250 kts | 296° |
| 2026-04-18 06:23 | 45.66262 | -122.78371 | 7419 ft | 253 kts | 296° |
| 2026-04-18 06:23 | 45.67049 | -122.80589 | 8058 ft | 254 kts | 282° |
| 2026-04-18 06:24 | 45.67074 | -122.83055 | 8704 ft | 249 kts | 256° |
| 2026-04-18 06:24 | 45.66618 | -122.85458 | 9387 ft | 252 kts | 251° |
| 2026-04-18 06:24 | 45.66084 | -122.87872 | 10040 ft | 256 kts | 250° |
| 2026-04-18 06:24 | 45.65307 | -122.90149 | 10612 ft | 258 kts | 229° |
| 2026-04-18 06:25 | 45.63885 | -122.91683 | 11259 ft | 258 kts | 204° |
| 2026-04-18 06:25 | 45.62142 | -122.92313 | 11874 ft | 261 kts | 187° |
| 2026-04-18 06:25 | 45.60321 | -122.92555 | 12493 ft | 265 kts | 185° |
| 2026-04-18 06:25 | 45.58468 | -122.92749 | 13116 ft | 267 kts | 185° |
| 2026-04-18 06:26 | 45.56606 | -122.92940 | 13727 ft | 270 kts | 185° |
| 2026-04-18 06:26 | 45.54720 | -122.93138 | 14263 ft | 275 kts | 185° |
| 2026-04-18 06:26 | 45.52786 | -122.93348 | 14688 ft | 282 kts | 185° |
| 2026-04-18 06:26 | 45.50780 | -122.93572 | 14948 ft | 301 kts | 186° |
| 2026-04-18 06:27 | 45.48611 | -122.93820 | 15132 ft | 324 kts | 186° |
| 2026-04-18 06:27 | 45.46284 | -122.94088 | 15304 ft | 346 kts | 186° |
| 2026-04-18 06:27 | 45.43831 | -122.94372 | 15688 ft | 359 kts | 186° |
| 2026-04-18 06:27 | 45.41312 | -122.94663 | 16295 ft | 365 kts | 186° |
| 2026-04-18 06:28 | 45.38763 | -122.94958 | 16964 ft | 370 kts | 186° |
| 2026-04-18 06:28 | 45.36183 | -122.95257 | 17615 ft | 375 kts | 187° |
| 2026-04-18 06:28 | 45.33557 | -122.95563 | 18248 ft | 380 kts | 187° |
| 2026-04-18 06:28 | 45.30904 | -122.95871 | 18825 ft | 385 kts | 187° |
| 2026-04-18 06:29 | 45.28225 | -122.96180 | 19461 ft | 387 kts | 187° |
| 2026-04-18 06:29 | 45.25571 | -122.96488 | 20114 ft | 388 kts | 188° |
| 2026-04-18 06:29 | 45.22839 | -122.96805 | 20747 ft | 391 kts | 188° |
| 2026-04-18 06:29 | 45.20137 | -122.96993 | 21293 ft | 396 kts | 184° |
| 2026-04-18 06:30 | 45.17362 | -122.96941 | 21848 ft | 401 kts | 181° |
| 2026-04-18 06:30 | 45.14573 | -122.96796 | 22507 ft | 401 kts | 181° |
| 2026-04-18 06:30 | 45.11802 | -122.96635 | 23340 ft | 397 kts | 181° |
| 2026-04-18 06:30 | 45.09061 | -122.96488 | 24111 ft | 393 kts | 182° |
| 2026-04-18 06:31 | 45.06312 | -122.96360 | 24432 ft | 401 kts | 182° |
| 2026-04-18 06:31 | 45.03465 | -122.96249 | 24526 ft | 415 kts | 183° |
| 2026-04-18 06:31 | 45.00558 | -122.96145 | 24816 ft | 422 kts | 183° |
| 2026-04-18 06:31 | 44.97616 | -122.96041 | 25237 ft | 424 kts | 183° |
| 2026-04-18 06:32 | 44.94659 | -122.95937 | 25698 ft | 426 kts | 183° |
| 2026-04-18 06:32 | 44.91692 | -122.95834 | 26150 ft | 428 kts | 183° |
| 2026-04-18 06:32 | 44.88718 | -122.95731 | 26650 ft | 428 kts | 184° |
| 2026-04-18 06:32 | 44.85738 | -122.95629 | 27132 ft | 429 kts | 184° |
| 2026-04-18 06:33 | 44.82719 | -122.95529 | 27128 ft | 436 kts | 184° |
| 2026-04-18 06:33 | 44.79688 | -122.95426 | 27151 ft | 436 kts | 184° |
| 2026-04-18 06:33 | 44.76663 | -122.95321 | 27143 ft | 432 kts | 184° |
| 2026-04-18 06:33 | 44.73671 | -122.95216 | 27138 ft | 430 kts | 184° |
| 2026-04-18 06:34 | 44.70678 | -122.95115 | 27157 ft | 431 kts | 184° |
| 2026-04-18 06:34 | 44.67675 | -122.95014 | 27164 ft | 432 kts | 184° |
| 2026-04-18 06:34 | 44.64699 | -122.94914 | 27166 ft | 433 kts | 184° |
| 2026-04-18 06:34 | 44.61685 | -122.94812 | 27171 ft | 434 kts | 184° |
| 2026-04-18 06:35 | 44.58629 | -122.94709 | 27170 ft | 434 kts | 184° |
| 2026-04-18 06:35 | 44.55648 | -122.94608 | 27169 ft | 434 kts | 184° |
| 2026-04-18 06:35 | 44.52636 | -122.94506 | 27166 ft | 434 kts | 184° |
| 2026-04-18 06:35 | 44.49616 | -122.94409 | 27145 ft | 433 kts | 185° |
| 2026-04-18 06:36 | 44.46610 | -122.94431 | 27163 ft | 431 kts | 186° |
| 2026-04-18 06:36 | 44.43624 | -122.94545 | 27166 ft | 430 kts | 187° |
| 2026-04-18 06:36 | 44.40627 | -122.94695 | 27166 ft | 430 kts | 187° |
| 2026-04-18 06:36 | 44.37641 | -122.94849 | 27170 ft | 430 kts | 187° |
| 2026-04-18 06:37 | 44.34659 | -122.94995 | 27169 ft | 430 kts | 187° |
| 2026-04-18 06:37 | 44.31665 | -122.95132 | 27105 ft | 428 kts | 187° |
| 2026-04-18 06:37 | 44.28733 | -122.95254 | 26782 ft | 414 kts | 187° |
| 2026-04-18 06:37 | 44.25909 | -122.95362 | 26517 ft | 399 kts | 187° |
| 2026-04-18 06:38 | 44.23187 | -122.95464 | 26248 ft | 385 kts | 187° |
| 2026-04-18 06:38 | 44.20552 | -122.95564 | 25982 ft | 373 kts | 187° |
| 2026-04-18 06:38 | 44.17989 | -122.95664 | 25732 ft | 365 kts | 187° |
| 2026-04-18 06:38 | 44.15448 | -122.95769 | 25473 ft | 366 kts | 187° |
| 2026-04-18 06:39 | 44.12908 | -122.95876 | 25251 ft | 366 kts | 187° |
| 2026-04-18 06:39 | 44.10362 | -122.95981 | 25022 ft | 366 kts | 187° |
| 2026-04-18 06:39 | 44.08687 | -122.96048 | 24957 ft | 358 kts | 187° |
| 2026-04-18 06:39 | 44.06270 | -122.96136 | 24906 ft | 337 kts | 187° |
| 2026-04-18 06:40 | 44.04010 | -122.96215 | 24799 ft | 315 kts | 188° |
| 2026-04-18 06:40 | 44.01894 | -122.96289 | 24700 ft | 294 kts | 188° |
| 2026-04-18 06:40 | 43.99909 | -122.96361 | 24566 ft | 276 kts | 189° |
| 2026-04-18 06:40 | 43.98052 | -122.96430 | 24441 ft | 258 kts | 189° |
| 2026-04-18 06:41 | 43.96297 | -122.96499 | 24207 ft | 247 kts | 189° |
| 2026-04-18 06:41 | 43.94614 | -122.96568 | 23979 ft | 241 kts | 190° |
| 2026-04-18 06:41 | 43.92915 | -122.96645 | 23778 ft | 246 kts | 189° |
| 2026-04-18 06:41 | 43.91187 | -122.96723 | 23526 ft | 250 kts | 189° |
| 2026-04-18 06:42 | 43.89452 | -122.96798 | 23253 ft | 249 kts | 189° |
| 2026-04-18 06:42 | 43.87721 | -122.96868 | 22977 ft | 248 kts | 189° |
| 2026-04-18 06:42 | 43.85994 | -122.96939 | 22731 ft | 250 kts | 189° |
| 2026-04-18 06:42 | 43.84249 | -122.97011 | 22465 ft | 251 kts | 189° |
| 2026-04-18 06:43 | 43.82515 | -122.97079 | 22185 ft | 249 kts | 188° |
| 2026-04-18 06:43 | 43.80789 | -122.97146 | 21916 ft | 247 kts | 188° |
| 2026-04-18 06:43 | 43.79081 | -122.97212 | 21648 ft | 244 kts | 188° |
| 2026-04-18 06:43 | 43.77392 | -122.97278 | 21389 ft | 242 kts | 188° |
| 2026-04-18 06:44 | 43.75714 | -122.97343 | 21133 ft | 240 kts | 188° |
| 2026-04-18 06:44 | 43.74048 | -122.97408 | 20878 ft | 239 kts | 188° |
| 2026-04-18 06:44 | 43.72396 | -122.97473 | 20628 ft | 237 kts | 188° |
| 2026-04-18 06:44 | 43.70750 | -122.97537 | 20378 ft | 236 kts | 188° |
| 2026-04-18 06:45 | 43.69109 | -122.97601 | 20131 ft | 235 kts | 188° |
| 2026-04-18 06:45 | 43.67475 | -122.97665 | 19883 ft | 234 kts | 188° |
| 2026-04-18 06:45 | 43.65854 | -122.97728 | 19642 ft | 233 kts | 188° |
| 2026-04-18 06:45 | 43.64239 | -122.97791 | 19408 ft | 232 kts | 188° |
| 2026-04-18 06:46 | 43.62623 | -122.97854 | 19150 ft | 232 kts | 188° |
| 2026-04-18 06:46 | 43.61031 | -122.97916 | 18920 ft | 232 kts | 188° |
| 2026-04-18 06:46 | 43.59423 | -122.97979 | 18700 ft | 231 kts | 187° |
| 2026-04-18 06:46 | 43.57816 | -122.98042 | 18456 ft | 231 kts | 187° |
| 2026-04-18 06:47 | 43.56211 | -122.98104 | 18184 ft | 231 kts | 187° |
| 2026-04-18 06:47 | 43.54609 | -122.98166 | 17927 ft | 230 kts | 187° |
| 2026-04-18 06:47 | 43.53011 | -122.98229 | 17660 ft | 230 kts | 187° |
| 2026-04-18 06:47 | 43.51421 | -122.98290 | 17385 ft | 229 kts | 187° |
| 2026-04-18 06:48 | 43.49819 | -122.98353 | 17151 ft | 232 kts | 186° |
| 2026-04-18 06:48 | 43.48201 | -122.98417 | 16890 ft | 232 kts | 186° |
| 2026-04-18 06:48 | 43.46590 | -122.98478 | 16629 ft | 230 kts | 186° |
| 2026-04-18 06:48 | 43.45000 | -122.98539 | 16371 ft | 228 kts | 186° |
| 2026-04-18 06:49 | 43.43429 | -122.98597 | 16100 ft | 224 kts | 186° |
| 2026-04-18 06:49 | 43.41887 | -122.98655 | 15848 ft | 220 kts | 186° |
| 2026-04-18 06:49 | 43.40358 | -122.98714 | 15600 ft | 218 kts | 186° |
| 2026-04-18 06:49 | 43.38849 | -122.98773 | 15356 ft | 217 kts | 186° |
| 2026-04-18 06:50 | 43.37344 | -122.98830 | 15106 ft | 216 kts | 186° |
| 2026-04-18 06:50 | 43.35849 | -122.98887 | 14866 ft | 214 kts | 186° |
| 2026-04-18 06:50 | 43.34363 | -122.98946 | 14630 ft | 213 kts | 186° |
| 2026-04-18 06:50 | 43.32878 | -122.99004 | 14395 ft | 213 kts | 185° |
| 2026-04-18 06:51 | 43.31395 | -122.99061 | 14158 ft | 213 kts | 185° |
| 2026-04-18 06:51 | 43.29911 | -122.99118 | 13926 ft | 213 kts | 185° |
| 2026-04-18 06:51 | 43.28432 | -122.99175 | 13657 ft | 213 kts | 185° |
| 2026-04-18 06:51 | 43.26955 | -122.99232 | 13404 ft | 212 kts | 185° |
| 2026-04-18 06:52 | 43.25479 | -122.99289 | 13147 ft | 213 kts | 185° |
| 2026-04-18 06:52 | 43.23997 | -122.99346 | 12882 ft | 213 kts | 185° |
| 2026-04-18 06:52 | 43.22514 | -122.99403 | 12625 ft | 212 kts | 185° |
| 2026-04-18 06:52 | 43.21057 | -122.99458 | 12358 ft | 208 kts | 185° |
| 2026-04-18 06:53 | 43.19623 | -122.99512 | 12096 ft | 204 kts | 185° |
| 2026-04-18 06:53 | 43.18219 | -122.99567 | 11815 ft | 201 kts | 184° |
| 2026-04-18 06:53 | 43.16825 | -122.99620 | 11578 ft | 200 kts | 184° |
| 2026-04-18 06:53 | 43.15441 | -122.99673 | 11330 ft | 198 kts | 184° |
| 2026-04-18 06:54 | 43.14087 | -122.99724 | 11080 ft | 196 kts | 184° |
| 2026-04-18 06:54 | 43.12713 | -122.99777 | 10837 ft | 195 kts | 184° |
| 2026-04-18 06:54 | 43.11380 | -122.99828 | 10601 ft | 194 kts | 183° |
| 2026-04-18 06:54 | 43.10018 | -122.99880 | 10357 ft | 193 kts | 183° |
| 2026-04-18 06:55 | 43.08694 | -122.99930 | 10123 ft | 193 kts | 183° |
| 2026-04-18 06:55 | 43.07357 | -122.99981 | 9865 ft | 192 kts | 183° |
| 2026-04-18 06:55 | 43.06027 | -123.00032 | 9604 ft | 191 kts | 183° |
| 2026-04-18 06:55 | 43.04704 | -123.00082 | 9338 ft | 190 kts | 183° |
| 2026-04-18 06:56 | 43.03386 | -123.00133 | 9079 ft | 188 kts | 183° |
| 2026-04-18 06:56 | 43.02083 | -123.00182 | 8810 ft | 187 kts | 183° |
| 2026-04-18 06:56 | 43.00777 | -123.00232 | 8553 ft | 188 kts | 183° |
| 2026-04-18 06:56 | 42.99473 | -123.00281 | 8307 ft | 187 kts | 183° |
| 2026-04-18 06:57 | 42.98173 | -123.00331 | 8057 ft | 187 kts | 183° |
| 2026-04-18 06:57 | 42.95590 | -123.00429 | 7554 ft | 184 kts | 182° |
| 2026-04-18 06:57 | 42.94308 | -123.00478 | 7315 ft | 184 kts | 182° |
| 2026-04-18 06:58 | 42.93038 | -123.00526 | 7085 ft | 181 kts | 183° |
| 2026-04-18 06:58 | 42.91776 | -123.00574 | 7062 ft | 184 kts | 182° |
| 2026-04-18 06:58 | 42.90493 | -123.00623 | 7034 ft | 183 kts | 182° |
| 2026-04-18 06:58 | 42.89230 | -123.00671 | 7020 ft | 180 kts | 182° |
| 2026-04-18 06:59 | 42.87982 | -123.00718 | 7011 ft | 178 kts | 182° |
| 2026-04-18 06:59 | 42.86729 | -123.00765 | 7024 ft | 183 kts | 182° |
| 2026-04-18 06:59 | 42.85456 | -123.00813 | 7027 ft | 183 kts | 183° |
| 2026-04-18 06:59 | 42.84176 | -123.00861 | 7025 ft | 185 kts | 183° |
| 2026-04-18 07:00 | 42.82887 | -123.00911 | 7023 ft | 186 kts | 183° |
| 2026-04-18 07:00 | 42.81586 | -123.00960 | 7017 ft | 187 kts | 183° |
| 2026-04-18 07:00 | 42.80296 | -123.01009 | 7007 ft | 183 kts | 182° |
| 2026-04-18 07:00 | 42.79045 | -123.01055 | 7008 ft | 180 kts | 182° |
| 2026-04-18 07:01 | 42.77783 | -123.01103 | 7013 ft | 182 kts | 183° |
| 2026-04-18 07:01 | 42.76517 | -123.01151 | 7021 ft | 182 kts | 182° |
| 2026-04-18 07:01 | 42.75247 | -123.01199 | 7018 ft | 183 kts | 182° |
| 2026-04-18 07:01 | 42.73983 | -123.01247 | 7016 ft | 185 kts | 182° |
| 2026-04-18 07:02 | 42.72681 | -123.01295 | 7009 ft | 185 kts | 182° |
| 2026-04-18 07:02 | 42.71399 | -123.01344 | 7019 ft | 184 kts | 182° |
| 2026-04-18 07:02 | 42.70131 | -123.01392 | 7014 ft | 184 kts | 182° |
| 2026-04-18 07:02 | 42.68849 | -123.01440 | 7020 ft | 184 kts | 182° |
| 2026-04-18 07:03 | 42.67566 | -123.01488 | 7015 ft | 184 kts | 182° |
| 2026-04-18 07:03 | 42.66267 | -123.01537 | 7013 ft | 184 kts | 182° |
| 2026-04-18 07:03 | 42.65005 | -123.01583 | 7008 ft | 183 kts | 181° |
| 2026-04-18 07:03 | 42.63774 | -123.01224 | 7020 ft | 182 kts | 158° |
| 2026-04-18 07:04 | 42.62605 | -123.00581 | 7008 ft | 181 kts | 160° |
| 2026-04-18 07:04 | 42.61424 | -122.99951 | 7015 ft | 183 kts | 160° |
| 2026-04-18 07:04 | 42.60264 | -122.99336 | 6960 ft | 175 kts | 160° |
| 2026-04-18 07:04 | 42.59157 | -122.98748 | 6673 ft | 168 kts | 160° |
| 2026-04-18 07:05 | 42.58060 | -122.98167 | 6249 ft | 169 kts | 159° |
| 2026-04-18 07:05 | 42.56981 | -122.97584 | 5959 ft | 161 kts | 159° |
| 2026-04-18 07:05 | 42.55917 | -122.97016 | 5427 ft | 169 kts | 159° |
| 2026-04-18 07:05 | 42.54821 | -122.96437 | 5053 ft | 168 kts | 158° |
| 2026-04-18 07:06 | 42.53757 | -122.95877 | 4785 ft | 158 kts | 158° |
| 2026-04-18 07:06 | 42.52737 | -122.95340 | 4374 ft | 156 kts | 158° |
| 2026-04-18 07:06 | 42.51732 | -122.94812 | 4128 ft | 154 kts | 158° |
| 2026-04-18 07:06 | 42.50725 | -122.94283 | 3909 ft | 157 kts | 158° |
| 2026-04-18 07:07 | 42.49700 | -122.93744 | 3692 ft | 159 kts | 159° |
| 2026-04-18 07:07 | 42.48673 | -122.93204 | 3488 ft | 158 kts | 159° |
| 2026-04-18 07:07 | 42.47647 | -122.92665 | 3271 ft | 158 kts | 159° |
| 2026-04-18 07:07 | 42.46626 | -122.92128 | 3063 ft | 157 kts | 159° |
| 2026-04-18 07:08 | 42.45611 | -122.91594 | 2846 ft | 156 kts | 159° |
| 2026-04-18 07:08 | 42.44599 | -122.91062 | 2640 ft | 155 kts | 159° |
| 2026-04-18 07:08 | 42.43561 | -122.90479 | 2623 ft | 171 kts | 156° |
| 2026-04-18 07:08 | 42.42428 | -122.89904 | 2408 ft | 166 kts | 160° |
| 2026-04-18 07:09 | 42.41389 | -122.89359 | 2065 ft | 156 kts | 156° |
| 2026-04-18 07:09 | 42.40407 | -122.88846 | 1748 ft | 146 kts | 159° |
| 2026-04-18 07:09 | 42.39483 | -122.88365 | 1501 ft | 143 kts | 158° |
| 2026-04-18 07:09 | 42.38535 | -122.87864 | 1346 ft | 146 kts | 158° |
| 2026-04-18 07:10 | 42.37643 | -122.87392 | 1313 ft | 123 kts | 159° |
| 2026-04-18 07:10 | 42.37008 | -122.87072 | 1325 ft | 70 kts | 159° |
| 2026-04-18 07:10 | 42.36695 | -122.86909 | 1334 ft | 29 kts | 158° |
| 2026-04-18 07:10 | 42.36519 | -122.86820 | 1330 ft | 21 kts | 159° |
| 2026-04-18 07:11 | 42.36489 | -122.86804 | 1331 ft | 6 kts | 159° |
| 2026-04-18 07:11 | 42.36378 | -122.86810 | 1334 ft | 16 kts | 218° |
| 2026-04-18 07:11 | 42.36401 | -122.86916 | 1334 ft | 15 kts | 334° |
| 2026-04-18 07:11 | 42.36501 | -122.86971 | 1332 ft | 17 kts | 338° |
| 2026-04-18 07:12 | 42.36567 | -122.87006 | 1331 ft | 0 kts | 339° |
| 2026-04-18 07:12 | 42.36570 | -122.87007 | 1331 ft | 1 kts | 339° |
| 2026-04-18 07:12 | 42.36598 | -122.87046 | 1330 ft | 12 kts | 282° |
| 2026-04-18 07:12 | 42.36661 | -122.87118 | 1329 ft | 0 kts | 338° |
| 2026-04-18 07:13 | 42.36702 | -122.87137 | 1328 ft | 18 kts | 341° |
| 2026-04-18 07:13 | 42.36711 | -122.87142 | 1328 ft | 0 kts | 341° |
| 2026-04-18 07:13 | 42.36722 | -122.87146 | 1328 ft | 6 kts | 345° |
| 2026-04-18 07:14 | 42.36812 | -122.87184 | 1331 ft | 20 kts | 339° |
| 2026-04-18 07:14 | 42.36872 | -122.87228 | 1329 ft | 8 kts | 307° |
| 2026-04-18 07:14 | 42.36915 | -122.87284 | 1325 ft | 7 kts | 327° |
| 2026-04-18 07:14 | 42.36921 | -122.87298 | 1324 ft | 5 kts | 291° |
| 2026-04-18 07:15 | 42.36912 | -122.87349 | 1324 ft | 6 kts | 251° |
| 2026-04-18 07:15 | 42.36909 | -122.87361 | 1327 ft | 4 kts | 249° |
| 2026-04-18 07:15 | 42.36908 | -122.87364 | 1326 ft | 0 kts | 249° |